Terminal Aerodrome Forecast
Issued by NWS New Orleans/Baton Rouge, LA

Home | Current Version | Previous Version | Text Only | Print | Product List | Glossary On
Versions: 1 2 3 4 5 6 7 8 9 10 11 12 13 14
540
FTUS44 KLIX 180540
TAFBTR
TAF
KBTR 180540Z 1806/1906 00000KT 1/2SM FG BKN003
      TEMPO 1812/1815 SHRA
     FM181500 09004KT 2SM SHRA BR BKN005 OVC045 PROB30 1815/1819
      TSRA BKN005CB
     FM181900 13006KT 3SM SHRA BKN010 OVC035
     FM182300 12005KT 4SM SHRA BKN008 OVC035
     FM190000 12004KT P6SM BKN008 OVC035
     FM190200 12004KT 3SM BR BKN003 OVC030=

USA.gov is the U.S. government's official web portal to all federal, state and local government web resources and services.